Time;durP1;ratioP1;P1;durP2;ratioP2;P2;SDS_P1;SDS_P2;PMS_P1;PMS_P2;Temp;Humidity;BMP_temperature;BMP_pressure;BME280_temperature;BME280_humidity;BME280_pressure;Samples;Min_cycle;Max_cycle;Signal;HPM_P1;HPM_P2
2023/09/06 00:00:32;;;;;;;10.77;9.68;;;20.00;99.90;;;;;;5124370;27;20408;-76
2023/09/06 00:02:59;;;;;;;11.45;10.13;;;20.10;99.90;;;;;;5107552;28;20413;-75
2023/09/06 00:05:29;;;;;;;13.68;10.38;;;20.30;99.90;;;;;;5128093;27;20433;-76
2023/09/06 00:07:55;;;;;;;12.77;9.82;;;20.00;99.90;;;;;;5129186;27;20417;-76
2023/09/06 00:10:21;;;;;;;10.33;9.20;;;19.90;99.90;;;;;;5129100;27;20410;-76
2023/09/06 00:12:47;;;;;;;13.10;9.53;;;20.00;99.90;;;;;;5094866;28;20426;-76
2023/09/06 00:15:14;;;;;;;11.40;9.40;;;19.90;99.90;;;;;;5094731;28;20402;-76
2023/09/06 00:17:41;;;;;;;12.95;9.93;;;19.90;99.90;;;;;;5078324;28;20846;-75
2023/09/06 00:20:20;;;;;;;10.25;9.18;;;19.60;99.90;;;;;;5111454;28;20462;-76
2023/09/06 00:22:53;;;;;;;11.48;8.70;;;19.90;99.90;;;;;;5129022;27;20912;-76
2023/09/06 00:25:19;;;;;;;10.10;8.50;;;20.00;99.90;;;;;;5129086;27;20490;-74
2023/09/06 00:27:45;;;;;;;9.93;8.35;;;19.80;99.90;;;;;;5128763;27;20976;-75
2023/09/06 00:30:11;;;;;;;8.82;7.93;;;19.80;99.90;;;;;;5111400;28;20754;-74
2023/09/06 00:32:36;;;;;;;9.60;8.30;;;19.80;99.90;;;;;;5111580;28;20770;-74
2023/09/06 00:35:02;;;;;;;9.57;8.37;;;19.60;99.90;;;;;;5095656;28;20417;-74
2023/09/06 00:37:39;;;;;;;10.82;8.20;;;19.60;99.90;;;;;;5094647;28;20409;-75
2023/09/06 00:40:19;;;;;;;8.70;7.70;;;19.70;99.90;;;;;;5094218;28;20746;-75
2023/09/06 00:42:51;;;;;;;10.68;7.72;;;19.70;99.90;;;;;;5077282;28;20413;-74
2023/09/06 00:45:21;;;;;;;8.65;7.75;;;19.70;99.90;;;;;;5110875;28;20462;-75
2023/09/06 00:47:49;;;;;;;10.18;8.10;;;19.80;99.90;;;;;;5111520;28;20547;-75
2023/09/06 00:50:16;;;;;;;8.23;7.43;;;19.50;99.90;;;;;;5077987;28;20398;-74
2023/09/06 00:52:43;;;;;;;9.47;7.73;;;19.50;99.90;;;;;;5094570;28;20422;-75
2023/09/06 00:55:09;;;;;;;10.40;7.65;;;19.50;99.90;;;;;;5094922;28;20488;-83
2023/09/06 00:57:35;;;;;;;8.30;7.22;;;19.60;99.90;;;;;;5095723;28;20414;-83
2023/09/06 01:00:05;;;;;;;9.98;7.50;;;19.40;99.90;;;;;;5095183;28;20833;-82
2023/09/06 01:02:31;;;;;;;9.02;8.02;;;19.40;99.90;;;;;;5112529;28;20844;-82
2023/09/06 01:04:57;;;;;;;9.00;7.40;;;19.50;99.90;;;;;;5095816;28;20402;-83
2023/09/06 01:07:29;;;;;;;9.88;7.15;;;19.40;99.90;;;;;;5095512;28;20428;-82
2023/09/06 01:09:54;;;;;;;10.95;8.38;;;19.50;99.90;;;;;;5095807;28;20906;-82
2023/09/06 01:12:20;;;;;;;10.50;8.85;;;19.10;99.90;;;;;;5130917;27;20432;-83
2023/09/06 01:14:46;;;;;;;10.60;9.07;;;19.20;99.90;;;;;;5095499;28;20393;-83
2023/09/06 01:17:15;;;;;;;10.00;8.20;;;19.40;99.90;;;;;;5095591;28;20763;-82
2023/09/06 01:19:45;;;;;;;10.32;8.55;;;19.00;99.90;;;;;;5129887;27;20398;-82
2023/09/06 01:22:17;;;;;;;8.93;7.82;;;19.20;99.90;;;;;;5095531;28;20400;-83
2023/09/06 01:24:44;;;;;;;11.45;8.38;;;19.20;99.90;;;;;;5129761;27;20401;-82
2023/09/06 01:27:12;;;;;;;9.20;7.80;;;19.20;99.90;;;;;;5112237;28;20405;-82
2023/09/06 01:29:38;;;;;;;10.25;8.18;;;19.20;99.90;;;;;;5095368;28;20422;-81
2023/09/06 01:32:05;;;;;;;10.53;8.13;;;19.00;99.90;;;;;;5111626;28;20421;-83
2023/09/06 01:34:31;;;;;;;11.13;7.50;;;18.80;99.90;;;;;;5094382;28;20398;-82
2023/09/06 01:36:56;;;;;;;9.23;7.30;;;18.90;99.90;;;;;;5111820;28;20430;-82
2023/09/06 01:39:22;;;;;;;8.97;7.33;;;19.00;99.90;;;;;;5111363;28;20798;-82
2023/09/06 01:41:48;;;;;;;9.15;7.45;;;18.80;99.90;;;;;;5094350;28;20405;-82
2023/09/06 01:44:14;;;;;;;8.45;7.40;;;18.90;99.90;;;;;;5112103;28;20402;-82
2023/09/06 01:46:40;;;;;;;9.52;7.63;;;19.00;99.90;;;;;;5110966;28;20402;-81
2023/09/06 01:49:08;;;;;;;9.38;7.78;;;19.00;99.90;;;;;;5095221;28;20921;-82
2023/09/06 01:51:35;;;;;;;10.38;7.85;;;18.90;99.90;;;;;;5129002;27;20730;-83
2023/09/06 01:54:07;;;;;;;9.63;8.20;;;18.70;99.90;;;;;;5077158;28;20658;-81
2023/09/06 01:56:32;;;;;;;9.48;8.00;;;18.90;99.90;;;;;;5128520;27;20402;-81
2023/09/06 01:58:58;;;;;;;10.20;8.70;;;18.60;99.90;;;;;;5094552;28;20777;-82
2023/09/06 02:01:24;;;;;;;9.07;7.95;;;18.70;99.90;;;;;;5111301;28;20430;-83
2023/09/06 02:03:50;;;;;;;11.70;9.48;;;18.50;99.90;;;;;;5096797;28;20390;-83
2023/09/06 02:06:16;;;;;;;11.80;9.00;;;18.40;99.90;;;;;;5095577;28;20409;-82
2023/09/06 02:08:41;;;;;;;12.18;9.18;;;18.40;99.90;;;;;;5093978;28;20477;-75
2023/09/06 02:11:07;;;;;;;11.13;9.23;;;18.30;99.90;;;;;;5093379;28;20405;-73
2023/09/06 02:13:33;;;;;;;13.30;9.00;;;18.20;99.90;;;;;;5110228;28;20542;-75
2023/09/06 02:16:00;;;;;;;9.80;8.73;;;18.40;99.90;;;;;;5110664;28;20409;-76
2023/09/06 02:18:26;;;;;;;10.88;9.18;;;18.20;99.90;;;;;;5127572;27;20386;-76
2023/09/06 02:20:55;;;;;;;9.90;8.90;;;18.30;99.90;;;;;;5110022;28;20398;-76
2023/09/06 02:23:21;;;;;;;10.38;9.27;;;18.40;99.90;;;;;;5092968;28;20402;-76
2023/09/06 02:25:47;;;;;;;12.15;8.60;;;18.30;99.90;;;;;;5076101;28;20882;-76
2023/09/06 02:28:14;;;;;;;9.68;8.30;;;18.10;99.90;;;;;;5091992;28;20404;-75
2023/09/06 02:30:41;;;;;;;10.70;7.93;;;18.10;99.90;;;;;;5092389;28;20789;-75
2023/09/06 02:33:16;;;;;;;8.38;7.32;;;18.20;99.90;;;;;;5108801;28;20458;-76
2023/09/06 02:35:42;;;;;;;8.93;7.88;;;18.30;99.90;;;;;;5092349;28;20409;-75
2023/09/06 02:38:11;;;;;;;9.07;7.70;;;18.30;99.90;;;;;;5109059;28;21014;-75
2023/09/06 02:40:40;;;;;;;9.00;7.53;;;18.20;99.90;;;;;;5075334;28;20920;-75
2023/09/06 02:43:06;;;;;;;11.47;8.17;;;18.10;99.90;;;;;;5092135;28;20796;-76
2023/09/06 02:45:38;;;;;;;10.17;7.63;;;18.00;99.90;;;;;;5125976;27;20404;-75
2023/09/06 02:48:15;;;;;;;10.13;8.20;;;18.10;99.90;;;;;;5091708;28;20398;-76
2023/09/06 02:50:41;;;;;;;9.35;7.53;;;18.00;99.90;;;;;;5074998;28;20401;-76
2023/09/06 02:53:19;;;;;;;8.33;7.30;;;18.30;99.90;;;;;;5108992;28;20425;-74
2023/09/06 02:55:51;;;;;;;9.43;6.90;;;18.20;99.90;;;;;;5091964;28;20402;-75
2023/09/06 02:58:18;;;;;;;9.25;7.07;;;18.20;99.90;;;;;;5091441;28;20410;-75
2023/09/06 03:00:47;;;;;;;7.97;6.93;;;18.10;99.90;;;;;;5091744;28;20406;-76
2023/09/06 03:03:15;;;;;;;8.82;7.45;;;18.00;99.90;;;;;;5092055;28;20408;-75
2023/09/06 03:05:42;;;;;;;10.60;7.43;;;18.00;99.90;;;;;;5091807;28;20909;-75
2023/09/06 03:08:12;;;;;;;8.65;7.15;;;18.20;99.90;;;;;;5091876;28;20488;-75
2023/09/06 03:10:44;;;;;;;7.93;6.68;;;18.20;99.90;;;;;;5091567;28;20402;-75
2023/09/06 03:13:10;;;;;;;9.33;7.60;;;17.90;99.90;;;;;;5125477;27;20485;-75
2023/09/06 03:15:36;;;;;;;9.10;7.60;;;18.00;99.90;;;;;;5091382;28;20394;-75
2023/09/06 03:18:04;;;;;;;9.48;7.70;;;17.90;99.90;;;;;;5091327;28;20422;-75
2023/09/06 03:20:34;;;;;;;10.00;7.40;;;18.00;99.90;;;;;;5125867;27;20436;-76
2023/09/06 03:23:17;;;;;;;8.93;6.80;;;17.60;99.90;;;;;;5125659;27;20397;-76
2023/09/06 03:25:47;;;;;;;9.52;7.10;;;17.80;99.90;;;;;;5125869;27;20746;-76
2023/09/06 03:28:14;;;;;;;8.63;7.07;;;17.90;99.90;;;;;;5108535;28;20394;-75
2023/09/06 03:30:41;;;;;;;9.35;7.82;;;18.00;99.90;;;;;;5091077;28;20509;-76
2023/09/06 03:33:06;;;;;;;8.10;7.30;;;17.90;99.90;;;;;;5090907;28;20467;-74
2023/09/06 03:35:32;;;;;;;9.45;7.55;;;17.70;99.90;;;;;;5124899;27;20724;-74
2023/09/06 03:37:59;;;;;;;9.07;7.20;;;18.00;99.90;;;;;;5124605;27;20390;-75
2023/09/06 03:40:25;;;;;;;11.55;7.38;;;17.60;99.90;;;;;;5107271;28;20395;-75
2023/09/06 03:42:55;;;;;;;8.48;7.10;;;17.70;99.90;;;;;;5091019;28;20886;-75
2023/09/06 03:45:24;;;;;;;8.65;7.32;;;17.50;99.90;;;;;;5107709;28;20460;-76
2023/09/06 03:47:54;;;;;;;8.75;6.65;;;17.90;99.90;;;;;;5107686;28;20405;-76
2023/09/06 03:50:21;;;;;;;9.25;7.07;;;17.60;99.90;;;;;;5090738;28;20409;-75
2023/09/06 03:52:47;;;;;;;7.50;6.50;;;18.00;99.90;;;;;;5073991;28;20413;-75
2023/09/06 03:55:16;;;;;;;7.72;6.22;;;17.60;99.90;;;;;;5107531;28;20404;-75
2023/09/06 03:57:42;;;;;;;8.57;6.72;;;17.90;99.90;;;;;;5108018;28;20414;-74
2023/09/06 04:02:56;;;;;;;8.98;6.80;;;17.50;99.90;;;;;;5124698;27;20409;-74
2023/09/06 04:05:25;;;;;;;8.57;6.10;;;17.70;99.90;;;;;;5091221;28;20893;-75
2023/09/06 04:07:56;;;;;;;10.95;7.40;;;17.40;99.90;;;;;;5107468;28;20402;-74
2023/09/06 04:10:27;;;;;;;8.30;6.60;;;17.50;99.90;;;;;;5091023;28;20394;-74
2023/09/06 04:12:55;;;;;;;7.78;6.93;;;17.60;99.90;;;;;;5090767;28;20414;-75
2023/09/06 04:15:23;;;;;;;7.43;6.38;;;17.30;99.90;;;;;;5124555;28;20405;-75
2023/09/06 04:17:57;;;;;;;7.90;6.93;;;17.50;99.90;;;;;;5090140;28;20477;-75
2023/09/06 04:20:27;;;;;;;7.78;6.15;;;17.30;99.90;;;;;;5107400;28;20925;-75
2023/09/06 04:22:57;;;;;;;7.68;6.00;;;17.70;99.90;;;;;;5091457;28;20404;-75
2023/09/06 04:25:26;;;;;;;8.35;6.32;;;17.30;99.90;;;;;;5124813;28;20459;-76
2023/09/06 04:27:54;;;;;;;8.68;6.30;;;17.30;99.90;;;;;;5107676;28;20402;-75
2023/09/06 04:30:24;;;;;;;8.43;6.35;;;17.50;99.90;;;;;;5090777;28;20497;-76
2023/09/06 04:32:51;;;;;;;8.05;6.15;;;17.30;99.90;;;;;;5090709;28;20418;-75
2023/09/06 04:35:17;;;;;;;7.80;6.47;;;17.50;99.90;;;;;;5125820;28;20746;-84
2023/09/06 04:37:43;;;;;;;8.45;6.50;;;16.90;99.90;;;;;;5091989;28;20483;-84
2023/09/06 04:40:11;;;;;;;7.20;6.15;;;17.20;99.90;;;;;;5126330;28;20860;-84
2023/09/06 04:42:39;;;;;;;6.80;5.95;;;17.20;99.90;;;;;;5074606;28;20449;-84
2023/09/06 04:45:10;;;;;;;9.65;6.40;;;17.20;99.90;;;;;;5108761;28;20406;-84
2023/09/06 04:47:39;;;;;;;6.72;5.68;;;17.30;99.90;;;;;;5091698;28;20406;-85
2023/09/06 04:50:06;;;;;;;7.03;5.88;;;17.00;99.90;;;;;;5109642;28;20413;-84
2023/09/06 04:52:59;;;;;;;7.95;5.90;;;17.10;99.90;;;;;;5095255;28;20478;-85
2023/09/06 04:55:24;;;;;;;7.43;5.70;;;16.90;99.90;;;;;;5092777;28;20746;-84
2023/09/06 04:57:52;;;;;;;7.82;5.90;;;17.20;99.90;;;;;;5112379;28;20410;-84
2023/09/06 05:00:23;;;;;;;9.20;7.00;;;16.90;99.90;;;;;;5113376;28;20406;-83
2023/09/06 05:02:51;;;;;;;10.13;6.75;;;17.10;99.90;;;;;;5113808;28;20461;-84
2023/09/06 05:05:17;;;;;;;7.07;6.20;;;16.70;99.90;;;;;;5078780;28;20457;-84
2023/09/06 05:07:45;;;;;;;8.88;6.13;;;16.90;99.90;;;;;;5113665;28;20445;-84
2023/09/06 05:10:11;;;;;;;8.13;5.75;;;16.90;99.90;;;;;;5095918;28;20406;-83
2023/09/06 05:12:37;;;;;;;7.80;5.95;;;16.80;99.90;;;;;;5131047;27;20421;-83
2023/09/06 05:15:04;;;;;;;7.37;5.83;;;17.00;99.90;;;;;;5097563;28;20885;-85
2023/09/06 05:17:30;;;;;;;9.68;6.30;;;16.90;99.90;;;;;;5130793;27;20411;-84
2023/09/06 05:20:23;;;;;;;9.48;5.88;;;16.90;99.90;;;;;;5079363;28;20402;-85
2023/09/06 05:22:49;;;;;;;9.13;5.05;;;16.90;99.90;;;;;;5134059;27;20489;-85
2023/09/06 05:25:15;;;;;;;6.65;5.20;;;16.90;99.90;;;;;;5114762;28;20506;-83
2023/09/06 05:27:40;;;;;;;9.13;5.70;;;17.00;99.90;;;;;;5114752;28;20401;-75
2023/09/06 05:30:07;;;;;;;8.52;5.53;;;16.90;99.90;;;;;;5110904;28;20414;-76
2023/09/06 05:32:32;;;;;;;9.30;5.32;;;16.80;99.90;;;;;;5128002;27;20552;-76
2023/09/06 05:34:58;;;;;;;8.50;6.10;;;16.80;99.90;;;;;;5093638;28;20481;-75
2023/09/06 05:37:24;;;;;;;10.90;6.07;;;16.90;99.90;;;;;;5093933;28;20398;-76
2023/09/06 05:39:50;;;;;;;7.85;6.20;;;16.90;99.90;;;;;;5110892;28;20398;-76
2023/09/06 05:42:16;;;;;;;7.28;5.80;;;17.20;99.90;;;;;;5110543;28;20425;-76
2023/09/06 05:44:43;;;;;;;11.02;5.63;;;17.20;99.90;;;;;;5127711;27;20460;-76
2023/09/06 05:47:09;;;;;;;7.47;5.70;;;17.60;99.90;;;;;;5093139;28;20410;-76
2023/09/06 05:49:35;;;;;;;6.85;5.75;;;17.40;99.90;;;;;;5093565;28;20413;-76
2023/09/06 05:52:02;;;;;;;7.97;5.55;;;17.90;99.90;;;;;;5093042;28;20418;-76
2023/09/06 05:54:28;;;;;;;8.70;5.97;;;17.90;99.90;;;;;;5093645;28;20413;-76
2023/09/06 05:56:53;;;;;;;7.23;5.60;;;17.80;99.90;;;;;;5093022;28;20390;-76
2023/09/06 05:59:19;;;;;;;9.63;5.40;;;17.70;99.90;;;;;;5093232;28;20509;-76
2023/09/06 06:01:45;;;;;;;12.77;5.55;;;18.20;99.90;;;;;;5092377;28;20838;-76
2023/09/06 06:04:11;;;;;;;9.98;5.30;;;18.20;99.90;;;;;;5094811;28;20433;-76
2023/09/06 06:06:37;;;;;;;9.73;5.40;;;18.30;99.90;;;;;;5093569;28;20429;-76
2023/09/06 06:09:04;;;;;;;8.23;5.30;;;18.30;99.90;;;;;;5093673;28;20973;-75
2023/09/06 06:11:30;;;;;;;8.63;5.28;;;18.40;99.90;;;;;;5127890;27;20754;-76
2023/09/06 06:13:56;;;;;;;7.25;4.97;;;18.40;99.90;;;;;;5093955;28;20431;-75
2023/09/06 06:16:22;;;;;;;9.20;5.10;;;18.60;99.90;;;;;;5093459;28;20927;-76
2023/09/06 06:18:48;;;;;;;6.78;4.90;;;18.70;99.90;;;;;;5093582;28;20394;-75
2023/09/06 06:21:14;;;;;;;10.35;5.20;;;18.80;99.90;;;;;;5110664;28;20401;-75
2023/09/06 06:23:43;;;;;;;8.70;5.20;;;18.80;99.90;;;;;;5092987;28;20477;-75
2023/09/06 06:26:09;;;;;;;6.68;4.72;;;19.20;99.90;;;;;;5076227;28;20426;-75
2023/09/06 06:28:35;;;;;;;9.23;4.45;;;19.50;99.90;;;;;;5126485;27;20401;-75
2023/09/06 06:31:01;;;;;;;7.80;4.40;;;19.50;99.90;;;;;;5110282;28;20402;-76
2023/09/06 06:33:26;;;;;;;7.40;4.28;;;19.60;99.90;;;;;;5109558;28;20504;-76
2023/09/06 06:35:52;;;;;;;11.03;4.37;;;19.80;99.90;;;;;;5110441;28;20530;-76
2023/09/06 06:38:18;;;;;;;5.28;3.80;;;19.80;99.90;;;;;;5093182;28;20933;-76
2023/09/06 06:40:43;;;;;;;10.57;4.30;;;20.20;99.90;;;;;;5093152;28;20481;-76
2023/09/06 06:43:09;;;;;;;5.80;4.00;;;20.30;99.90;;;;;;5110128;28;20812;-76
2023/09/06 06:45:35;;;;;;;6.65;4.07;;;20.50;99.90;;;;;;5110072;28;20430;-76
2023/09/06 06:48:01;;;;;;;6.25;3.85;;;20.70;99.90;;;;;;5093005;28;20441;-75
2023/09/06 06:50:27;;;;;;;7.72;3.90;;;20.70;99.90;;;;;;5126471;27;20397;-75
2023/09/06 06:52:52;;;;;;;7.83;3.83;;;20.80;99.90;;;;;;5092452;28;20430;-76
2023/09/06 06:55:18;;;;;;;5.87;3.70;;;21.00;99.90;;;;;;5093100;28;20398;-77
2023/09/06 06:57:44;;;;;;;6.18;4.20;;;21.10;99.90;;;;;;5109253;28;20800;-76
2023/09/06 07:00:11;;;;;;;7.00;4.10;;;21.20;99.90;;;;;;5109548;28;20727;-77
2023/09/06 07:02:38;;;;;;;7.43;3.95;;;21.00;99.90;;;;;;5092118;28;20398;-77
2023/09/06 07:05:04;;;;;;;8.77;3.80;;;21.20;99.90;;;;;;5075252;28;20402;-76
2023/09/06 07:07:29;;;;;;;7.30;3.75;;;21.60;99.90;;;;;;5092347;28;20461;-75
2023/09/06 07:09:55;;;;;;;5.80;3.80;;;21.70;99.90;;;;;;5092304;28;20398;-74
2023/09/06 07:12:21;;;;;;;6.85;3.85;;;21.50;99.90;;;;;;5109237;28;20436;-75
2023/09/06 07:14:47;;;;;;;6.85;3.85;;;21.70;99.90;;;;;;5091701;28;20429;-77
2023/09/06 07:17:12;;;;;;;6.80;4.03;;;21.70;99.90;;;;;;5091933;28;20401;-77
2023/09/06 07:19:38;;;;;;;6.95;4.05;;;21.70;99.90;;;;;;5092437;28;20404;-76
2023/09/06 07:22:04;;;;;;;6.53;4.10;;;21.80;99.90;;;;;;5109425;28;20761;-77
2023/09/06 07:24:29;;;;;;;7.90;4.40;;;21.90;99.90;;;;;;5109025;28;20406;-76
2023/09/06 07:26:55;;;;;;;6.95;3.70;;;22.10;99.90;;;;;;5092140;28;20451;-77
2023/09/06 07:29:21;;;;;;;7.50;4.03;;;22.20;99.90;;;;;;5126088;27;20412;-75
2023/09/06 07:31:46;;;;;;;10.03;4.37;;;22.30;99.90;;;;;;5125878;27;20413;-76
2023/09/06 07:34:12;;;;;;;5.78;3.63;;;22.20;99.90;;;;;;5108273;28;20394;-75
2023/09/06 07:36:38;;;;;;;6.32;3.78;;;22.50;99.90;;;;;;5108695;28;20390;-76
2023/09/06 07:39:04;;;;;;;10.38;3.70;;;22.80;99.90;;;;;;5091915;28;20393;-76
2023/09/06 07:41:30;;;;;;;8.77;3.10;;;22.80;99.90;;;;;;5092235;28;20402;-76
2023/09/06 07:43:55;;;;;;;5.50;3.15;;;22.90;99.90;;;;;;5108514;28;20757;-76
2023/09/06 07:46:27;;;;;;;11.30;3.35;;;23.00;99.90;;;;;;5108541;28;20409;-76
2023/09/06 07:48:54;;;;;;;6.35;3.00;;;23.00;99.90;;;;;;5107640;28;20459;-75
2023/09/06 07:51:20;;;;;;;5.28;3.10;;;23.20;99.90;;;;;;5109264;28;20398;-75
2023/09/06 07:53:46;;;;;;;6.65;3.22;;;23.60;99.90;;;;;;5108529;28;20429;-75
2023/09/06 07:56:11;;;;;;;4.75;2.97;;;23.40;99.90;;;;;;5108215;28;20394;-76
2023/09/06 07:58:37;;;;;;;8.77;3.50;;;23.70;99.90;;;;;;5108337;28;20414;-76
2023/09/06 08:01:04;;;;;;;5.00;3.30;;;23.70;99.90;;;;;;5108523;28;20897;-75
2023/09/06 08:03:30;;;;;;;4.50;2.97;;;23.50;99.90;;;;;;5108022;28;20444;-77
2023/09/06 08:05:55;;;;;;;5.38;2.80;;;23.70;99.90;;;;;;5108430;28;20409;-76
2023/09/06 08:08:21;;;;;;;6.33;3.03;;;23.80;99.90;;;;;;5091483;28;20473;-76
2023/09/06 08:10:47;;;;;;;7.03;2.80;;;23.90;99.90;;;;;;5091656;28;20441;-76
2023/09/06 08:13:13;;;;;;;4.53;2.80;;;24.00;99.90;;;;;;5108454;28;20418;-75
2023/09/06 08:15:38;;;;;;;6.60;2.60;;;24.20;99.90;;;;;;5125337;27;20394;-76
2023/09/06 08:18:05;;;;;;;6.27;2.80;;;24.40;99.90;;;;;;5108613;28;20408;-76
2023/09/06 08:20:31;;;;;;;5.80;3.00;;;24.50;99.90;;;;;;5091809;28;20402;-75
2023/09/06 08:22:57;;;;;;;6.45;3.08;;;24.50;99.90;;;;;;5074949;28;20780;-75
2023/09/06 08:25:23;;;;;;;6.57;3.05;;;24.30;99.90;;;;;;5092711;28;20530;-74
2023/09/06 08:27:50;;;;;;;5.90;3.03;;;24.50;99.90;;;;;;5112522;28;20447;-76
2023/09/06 08:30:17;;;;;;;9.85;3.22;;;24.60;99.90;;;;;;5095186;28;20417;-75
2023/09/06 08:32:45;;;;;;;4.70;2.67;;;24.40;99.90;;;;;;5112557;28;20478;-76
2023/09/06 08:35:11;;;;;;;5.97;3.00;;;24.40;99.90;;;;;;5112220;28;20473;-76
2023/09/06 08:37:38;;;;;;;6.60;3.13;;;24.30;99.90;;;;;;5095590;28;20401;-76
2023/09/06 08:40:07;;;;;;;7.03;2.92;;;24.70;99.90;;;;;;5094994;28;20909;-76
2023/09/06 08:42:34;;;;;;;4.95;2.90;;;25.00;99.90;;;;;;5111830;28;20629;-76
2023/09/06 08:45:07;;;;;;;5.60;3.03;;;25.20;99.90;;;;;;5078436;28;20404;-76
2023/09/06 08:47:35;;;;;;;5.53;2.88;;;25.10;99.90;;;;;;5078284;28;20742;-76
2023/09/06 08:50:02;;;;;;;4.50;2.72;;;25.20;99.90;;;;;;5112088;28;20412;-75
2023/09/06 08:52:30;;;;;;;4.20;2.72;;;25.30;99.90;;;;;;5094664;28;20422;-75
2023/09/06 08:54:55;;;;;;;5.13;2.65;;;25.40;99.90;;;;;;5078206;28;20493;-75
2023/09/06 08:57:22;;;;;;;4.38;2.60;;;25.30;99.90;;;;;;5111058;28;20425;-76
2023/09/06 08:59:49;;;;;;;4.28;2.72;;;25.80;99.90;;;;;;5111600;28;20413;-75
2023/09/06 09:02:16;;;;;;;3.40;2.30;;;26.10;99.90;;;;;;5095176;28;20410;-76
2023/09/06 09:04:42;;;;;;;4.03;2.55;;;26.10;99.90;;;;;;5112196;28;20551;-76
2023/09/06 09:07:13;;;;;;;4.43;2.67;;;26.00;99.90;;;;;;5112220;28;20488;-76
2023/09/06 09:09:55;;;;;;;4.93;2.63;;;26.50;99.90;;;;;;5094811;28;20482;-76
2023/09/06 09:12:29;;;;;;;11.38;3.20;;;26.60;99.90;;;;;;5094554;28;20425;-76
2023/09/06 09:14:56;;;;;;;6.13;2.70;;;26.90;99.90;;;;;;5128832;27;20413;-77
2023/09/06 09:17:26;;;;;;;5.95;2.63;;;26.50;99.90;;;;;;5077542;28;20470;-77
2023/09/06 09:19:55;;;;;;;5.13;2.70;;;26.90;99.90;;;;;;5111833;28;20765;-76
2023/09/06 09:22:24;;;;;;;6.97;2.90;;;27.20;99.90;;;;;;5094283;28;20431;-76
2023/09/06 09:24:57;;;;;;;6.70;3.08;;;27.20;99.90;;;;;;5094497;28;20433;-75
2023/09/06 09:27:23;;;;;;;6.80;3.00;;;26.90;99.90;;;;;;5094342;28;20405;-76
2023/09/06 09:29:49;;;;;;;5.55;2.70;;;27.30;99.90;;;;;;5111940;28;20920;-75
2023/09/06 09:32:15;;;;;;;5.40;2.80;;;27.40;99.90;;;;;;5129421;27;20500;-76
2023/09/06 09:34:41;;;;;;;4.72;2.50;;;27.50;99.90;;;;;;5128946;27;20895;-75
2023/09/06 09:37:10;;;;;;;4.73;2.90;;;27.40;99.90;;;;;;5092237;28;20951;-76
2023/09/06 09:39:37;;;;;;;5.47;2.60;;;27.40;99.90;;;;;;5127790;27;20444;-75
2023/09/06 09:42:04;;;;;;;6.45;2.60;;;27.70;99.90;;;;;;5094268;28;20402;-76
2023/09/06 09:44:30;;;;;;;8.30;3.03;;;27.80;99.90;;;;;;5093906;28;20434;-76
2023/09/06 09:46:57;;;;;;;4.65;2.50;;;27.70;99.90;;;;;;5093826;28;20932;-76
2023/09/06 09:49:24;;;;;;;4.88;2.55;;;27.70;99.90;;;;;;5077464;28;20757;-77
2023/09/06 09:51:50;;;;;;;4.77;2.77;;;27.80;99.90;;;;;;5110764;28;20421;-76
2023/09/06 09:54:17;;;;;;;5.57;2.90;;;27.50;99.90;;;;;;5110771;28;20894;-76
2023/09/06 09:56:56;;;;;;;5.73;2.70;;;27.70;99.90;;;;;;5127590;27;20417;-75
2023/09/06 09:59:22;;;;;;;4.53;2.80;;;27.70;99.90;;;;;;5127804;27;20414;-76
2023/09/06 10:01:51;;;;;;;4.70;2.50;;;28.00;99.90;;;;;;5127987;27;20758;-75
2023/09/06 10:04:19;;;;;;;6.07;2.90;;;28.30;99.90;;;;;;5093706;28;20426;-76
2023/09/06 10:06:46;;;;;;;4.57;2.70;;;28.20;99.90;;;;;;5093641;28;20425;-75
2023/09/06 10:09:14;;;;;;;6.15;2.53;;;28.00;99.90;;;;;;5093251;28;20447;-74
2023/09/06 10:11:42;;;;;;;4.65;2.53;;;28.20;99.90;;;;;;5109338;28;20394;-76
2023/09/06 10:14:11;;;;;;;4.63;2.80;;;28.50;99.90;;;;;;5127634;27;20394;-76
2023/09/06 10:16:38;;;;;;;6.82;2.50;;;28.80;99.90;;;;;;5127625;27;20404;-76
2023/09/06 10:19:04;;;;;;;6.30;2.50;;;28.90;99.90;;;;;;5110297;28;20408;-77
2023/09/06 10:21:31;;;;;;;4.70;2.57;;;29.20;99.90;;;;;;5110047;28;20398;-76
2023/09/06 10:23:58;;;;;;;6.20;2.70;;;28.90;99.90;;;;;;5127562;27;20405;-76
2023/09/06 10:26:34;;;;;;;5.40;2.50;;;28.90;99.90;;;;;;5092886;28;20413;-76
2023/09/06 10:29:00;;;;;;;9.30;2.70;;;28.90;99.90;;;;;;5126937;27;20414;-76
2023/09/06 10:31:49;;;;;;;4.25;2.55;;;29.20;99.90;;;;;;5127460;27;20398;-76
2023/09/06 10:34:15;;;;;;;7.83;2.60;;;29.30;99.90;;;;;;5092799;28;20406;-76
2023/09/06 10:36:53;;;;;;;5.30;2.50;;;29.40;99.90;;;;;;5110033;28;20398;-76
2023/09/06 10:39:25;;;;;;;8.07;2.83;;;29.00;99.90;;;;;;5093204;28;20386;-75
2023/09/06 10:42:27;;;;;;;4.35;2.50;;;29.30;99.90;;;;;;5127191;27;20401;-75
2023/09/06 10:44:55;;;;;;;8.53;2.40;;;29.10;99.90;;;;;;5019235;28;20485;-76
2023/09/06 10:47:32;;;;;;;6.07;2.30;;;29.50;99.90;;;;;;5064380;28;20401;-75
2023/09/06 10:50:16;;;;;;;5.20;2.30;;;29.10;99.90;;;;;;5092918;28;20394;-76
2023/09/06 10:52:49;;;;;;;5.75;2.20;;;29.10;99.90;;;;;;5126396;27;20426;-76
2023/09/06 10:55:20;;;;;;;4.10;2.40;;;28.90;99.90;;;;;;5109098;28;20398;-76
2023/09/06 10:57:50;;;;;;;4.90;2.38;;;29.50;99.90;;;;;;5109379;28;20462;-76
2023/09/06 11:00:27;;;;;;;4.68;2.30;;;29.70;99.90;;;;;;5092840;28;20406;-75
2023/09/06 11:03:08;;;;;;;8.40;2.60;;;29.30;99.90;;;;;;5092705;28;20444;-75
2023/09/06 11:05:42;;;;;;;5.73;2.00;;;29.40;99.90;;;;;;5092033;28;20746;-75
2023/09/06 11:08:20;;;;;;;5.47;2.30;;;29.20;99.90;;;;;;5125998;27;20398;-74
2023/09/06 11:10:46;;;;;;;6.60;2.28;;;29.30;99.90;;;;;;5075499;28;20893;-73
2023/09/06 11:13:14;;;;;;;3.40;2.00;;;29.50;99.80;;;;;;5092046;28;20427;-76
2023/09/06 11:15:41;;;;;;;4.80;2.20;;;29.30;99.20;;;;;;5126447;27;20398;-76
2023/09/06 11:18:08;;;;;;;4.53;2.33;;;29.30;99.20;;;;;;5109424;28;20402;-76
2023/09/06 11:20:35;;;;;;;4.35;2.25;;;29.00;99.50;;;;;;5092139;28;20538;-76
2023/09/06 11:23:03;;;;;;;7.20;2.50;;;29.60;99.40;;;;;;5109026;28;20498;-76
2023/09/06 11:25:31;;;;;;;4.90;2.10;;;29.30;99.10;;;;;;5126617;27;20547;-75
2023/09/06 11:28:13;;;;;;;4.10;2.17;;;29.40;99.30;;;;;;5109777;28;20402;-75
2023/09/06 11:30:39;;;;;;;3.08;1.92;;;29.40;99.00;;;;;;5126518;27;20493;-75
2023/09/06 11:33:07;;;;;;;5.38;2.20;;;30.10;99.30;;;;;;5091841;28;20841;-75
2023/09/06 11:35:40;;;;;;;3.70;2.00;;;30.00;98.90;;;;;;5091965;28;20416;-74
2023/09/06 11:38:11;;;;;;;4.03;2.00;;;29.70;98.00;;;;;;5092037;28;20834;-76
2023/09/06 11:40:37;;;;;;;3.00;2.25;;;30.20;98.10;;;;;;5092144;28;20477;-78
2023/09/06 11:43:05;;;;;;;5.05;1.98;;;30.40;97.70;;;;;;5074972;28;20405;-77
2023/09/06 11:45:32;;;;;;;3.03;1.98;;;29.50;96.70;;;;;;5092297;28;20898;-80
2023/09/06 11:48:04;;;;;;;4.68;2.00;;;30.70;96.40;;;;;;5109897;28;20401;-82
2023/09/06 11:50:32;;;;;;;3.85;1.80;;;30.40;96.80;;;;;;5092886;28;20496;-82
2023/09/06 11:53:02;;;;;;;3.40;1.87;;;30.30;96.20;;;;;;5109276;28;20449;-82
2023/09/06 11:55:32;;;;;;;2.78;1.90;;;30.20;96.10;;;;;;5075291;28;20394;-82
2023/09/06 11:57:58;;;;;;;4.30;1.90;;;30.20;96.70;;;;;;5076188;28;20758;-82
2023/09/06 12:00:35;;;;;;;4.97;1.90;;;30.70;95.80;;;;;;5091950;28;20418;-82
2023/09/06 12:03:07;;;;;;;4.80;1.80;;;30.80;96.00;;;;;;5126537;27;20406;-82
2023/09/06 12:05:40;;;;;;;3.73;2.00;;;31.10;95.40;;;;;;5110006;28;20398;-82
2023/09/06 12:08:07;;;;;;;4.38;1.98;;;31.10;95.10;;;;;;5076341;28;20402;-82
2023/09/06 12:10:34;;;;;;;4.35;2.00;;;31.30;95.30;;;;;;5093715;28;20402;-82
2023/09/06 12:13:00;;;;;;;3.13;1.90;;;31.00;94.40;;;;;;5126903;28;20458;-81
2023/09/06 12:15:26;;;;;;;3.13;1.98;;;31.20;95.00;;;;;;5092349;28;20401;-76
2023/09/06 12:17:52;;;;;;;3.78;1.83;;;30.80;94.70;;;;;;5108285;28;20398;-75
2023/09/06 12:20:19;;;;;;;4.78;1.98;;;31.20;95.10;;;;;;5108124;28;20402;-75
2023/09/06 12:22:46;;;;;;;3.47;1.90;;;31.30;95.10;;;;;;5091299;28;20397;-75
2023/09/06 12:25:14;;;;;;;4.00;1.90;;;31.50;94.30;;;;;;5108245;28;20398;-75
2023/09/06 12:27:43;;;;;;;4.32;2.03;;;31.30;93.50;;;;;;5108200;28;20455;-73
2023/09/06 12:30:10;;;;;;;6.30;2.17;;;31.60;93.40;;;;;;5107617;28;20441;-76
2023/09/06 12:32:39;;;;;;;3.10;1.90;;;32.00;93.40;;;;;;5091706;28;20429;-76
2023/09/06 12:35:07;;;;;;;3.47;1.90;;;31.80;93.10;;;;;;5125778;28;20400;-76
2023/09/06 12:37:36;;;;;;;3.88;1.70;;;31.60;93.50;;;;;;5125305;28;20450;-76
2023/09/06 12:40:10;;;;;;;3.10;1.98;;;31.40;93.50;;;;;;5074887;28;20398;-76
2023/09/06 12:42:46;;;;;;;4.45;2.15;;;31.20;93.90;;;;;;5092142;28;20517;-76
2023/09/06 12:45:23;;;;;;;4.43;2.00;;;31.30;94.10;;;;;;5074596;28;20401;-76
2023/09/06 12:47:49;;;;;;;3.50;1.90;;;31.70;94.30;;;;;;5125253;28;20406;-76
2023/09/06 12:50:15;;;;;;;2.40;1.63;;;31.60;94.50;;;;;;5108255;28;20405;-76
2023/09/06 12:52:40;;;;;;;5.57;2.00;;;31.40;93.40;;;;;;5107656;28;20559;-76